sensor_id;sensor_type;location;lat;lon;timestamp;P1;durP1;ratioP1;P2;durP2;ratioP2
51298;SDS011;37382;45.192;9.790;2023-04-03T00:01:08;9.93;;;5.90;;
51298;SDS011;37382;45.192;9.790;2023-04-03T00:03:36;8.32;;;6.35;;
51298;SDS011;37382;45.192;9.790;2023-04-03T00:06:04;11.32;;;8.02;;
51298;SDS011;37382;45.192;9.790;2023-04-03T00:08:38;10.80;;;8.27;;
51298;SDS011;37382;45.192;9.790;2023-04-03T00:11:07;10.57;;;6.38;;
51298;SDS011;37382;45.192;9.790;2023-04-03T00:13:36;9.05;;;6.45;;
51298;SDS011;37382;45.192;9.790;2023-04-03T00:16:04;12.18;;;6.25;;
51298;SDS011;37382;45.192;9.790;2023-04-03T00:18:33;7.32;;;5.70;;
51298;SDS011;37382;45.192;9.790;2023-04-03T00:21:01;9.73;;;6.78;;
51298;SDS011;37382;45.192;9.790;2023-04-03T00:23:29;7.38;;;5.97;;
51298;SDS011;37382;45.192;9.790;2023-04-03T00:25:56;6.78;;;5.50;;
51298;SDS011;37382;45.192;9.790;2023-04-03T00:28:24;14.30;;;6.63;;
51298;SDS011;37382;45.192;9.790;2023-04-03T00:30:51;11.07;;;6.40;;
51298;SDS011;37382;45.192;9.790;2023-04-03T00:33:20;9.35;;;6.30;;
51298;SDS011;37382;45.192;9.790;2023-04-03T00:35:49;8.75;;;6.13;;
51298;SDS011;37382;45.192;9.790;2023-04-03T00:38:17;8.85;;;6.57;;
51298;SDS011;37382;45.192;9.790;2023-04-03T00:40:45;6.60;;;5.90;;
51298;SDS011;37382;45.192;9.790;2023-04-03T00:43:16;15.07;;;6.43;;
51298;SDS011;37382;45.192;9.790;2023-04-03T00:48:36;9.52;;;5.78;;
51298;SDS011;37382;45.192;9.790;2023-04-03T00:51:09;10.18;;;6.28;;
51298;SDS011;37382;45.192;9.790;2023-04-03T00:53:41;11.98;;;5.85;;
51298;SDS011;37382;45.192;9.790;2023-04-03T00:56:14;7.88;;;5.28;;
51298;SDS011;37382;45.192;9.790;2023-04-03T00:58:51;8.65;;;5.13;;
51298;SDS011;37382;45.192;9.790;2023-04-03T01:01:25;9.90;;;6.30;;
51298;SDS011;37382;45.192;9.790;2023-04-03T01:03:54;14.75;;;5.70;;
51298;SDS011;37382;45.192;9.790;2023-04-03T01:06:25;9.98;;;5.85;;
51298;SDS011;37382;45.192;9.790;2023-04-03T01:09:03;9.07;;;6.05;;
51298;SDS011;37382;45.192;9.790;2023-04-03T01:11:32;9.18;;;6.65;;
51298;SDS011;37382;45.192;9.790;2023-04-03T01:14:01;7.40;;;5.45;;
51298;SDS011;37382;45.192;9.790;2023-04-03T01:16:29;11.35;;;5.38;;
51298;SDS011;37382;45.192;9.790;2023-04-03T01:18:59;12.35;;;5.57;;
51298;SDS011;37382;45.192;9.790;2023-04-03T01:26:27;11.30;;;5.88;;
51298;SDS011;37382;45.192;9.790;2023-04-03T01:28:55;6.25;;;5.07;;
51298;SDS011;37382;45.192;9.790;2023-04-03T01:31:28;13.20;;;6.18;;
51298;SDS011;37382;45.192;9.790;2023-04-03T01:34:13;8.25;;;5.80;;
51298;SDS011;37382;45.192;9.790;2023-04-03T01:36:40;6.13;;;5.53;;
51298;SDS011;37382;45.192;9.790;2023-04-03T01:39:08;8.57;;;6.28;;
51298;SDS011;37382;45.192;9.790;2023-04-03T01:41:36;8.20;;;5.50;;
51298;SDS011;37382;45.192;9.790;2023-04-03T01:44:12;9.35;;;6.05;;
51298;SDS011;37382;45.192;9.790;2023-04-03T01:46:40;11.85;;;6.32;;
51298;SDS011;37382;45.192;9.790;2023-04-03T01:49:09;6.55;;;5.63;;
51298;SDS011;37382;45.192;9.790;2023-04-03T01:51:37;8.82;;;6.07;;
51298;SDS011;37382;45.192;9.790;2023-04-03T01:54:04;6.90;;;5.85;;
51298;SDS011;37382;45.192;9.790;2023-04-03T01:56:32;7.93;;;6.57;;
51298;SDS011;37382;45.192;9.790;2023-04-03T01:59:00;9.50;;;6.57;;
51298;SDS011;37382;45.192;9.790;2023-04-03T02:01:28;8.85;;;7.85;;
51298;SDS011;37382;45.192;9.790;2023-04-03T02:03:55;15.80;;;7.82;;
51298;SDS011;37382;45.192;9.790;2023-04-03T02:06:23;15.38;;;7.03;;
51298;SDS011;37382;45.192;9.790;2023-04-03T02:08:50;9.35;;;6.13;;
51298;SDS011;37382;45.192;9.790;2023-04-03T02:11:18;9.18;;;6.80;;
51298;SDS011;37382;45.192;9.790;2023-04-03T02:13:46;7.85;;;5.85;;
51298;SDS011;37382;45.192;9.790;2023-04-03T02:16:13;8.60;;;6.03;;
51298;SDS011;37382;45.192;9.790;2023-04-03T02:18:41;6.93;;;5.47;;
51298;SDS011;37382;45.192;9.790;2023-04-03T02:21:08;6.93;;;5.75;;
51298;SDS011;37382;45.192;9.790;2023-04-03T02:23:36;13.98;;;6.70;;
51298;SDS011;37382;45.192;9.790;2023-04-03T02:26:05;11.75;;;5.97;;
51298;SDS011;37382;45.192;9.790;2023-04-03T02:28:34;10.02;;;5.93;;
51298;SDS011;37382;45.192;9.790;2023-04-03T02:31:02;14.57;;;6.50;;
51298;SDS011;37382;45.192;9.790;2023-04-03T02:33:31;7.03;;;5.85;;
51298;SDS011;37382;45.192;9.790;2023-04-03T02:36:00;10.60;;;6.85;;
51298;SDS011;37382;45.192;9.790;2023-04-03T02:38:28;6.25;;;5.57;;
51298;SDS011;37382;45.192;9.790;2023-04-03T02:41:02;8.57;;;6.47;;
51298;SDS011;37382;45.192;9.790;2023-04-03T02:43:31;11.70;;;7.25;;
51298;SDS011;37382;45.192;9.790;2023-04-03T02:45:59;9.10;;;7.05;;
51298;SDS011;37382;45.192;9.790;2023-04-03T02:48:27;10.85;;;6.72;;
51298;SDS011;37382;45.192;9.790;2023-04-03T02:50:55;11.63;;;6.53;;
51298;SDS011;37382;45.192;9.790;2023-04-03T02:53:22;14.73;;;7.90;;
51298;SDS011;37382;45.192;9.790;2023-04-03T02:55:51;10.77;;;8.18;;
51298;SDS011;37382;45.192;9.790;2023-04-03T02:58:18;13.23;;;7.57;;
51298;SDS011;37382;45.192;9.790;2023-04-03T03:00:47;10.15;;;6.90;;
51298;SDS011;37382;45.192;9.790;2023-04-03T03:03:14;9.95;;;6.53;;
51298;SDS011;37382;45.192;9.790;2023-04-03T03:05:42;9.07;;;7.13;;
51298;SDS011;37382;45.192;9.790;2023-04-03T03:08:09;8.57;;;7.00;;
51298;SDS011;37382;45.192;9.790;2023-04-03T03:10:37;9.55;;;7.50;;
51298;SDS011;37382;45.192;9.790;2023-04-03T03:13:06;10.45;;;7.15;;
51298;SDS011;37382;45.192;9.790;2023-04-03T03:15:34;8.18;;;7.07;;
51298;SDS011;37382;45.192;9.790;2023-04-03T03:18:02;8.68;;;7.15;;
51298;SDS011;37382;45.192;9.790;2023-04-03T03:20:29;11.18;;;6.85;;
51298;SDS011;37382;45.192;9.790;2023-04-03T03:22:58;11.07;;;7.10;;
51298;SDS011;37382;45.192;9.790;2023-04-03T03:25:25;11.18;;;7.93;;
51298;SDS011;37382;45.192;9.790;2023-04-03T03:27:53;10.80;;;6.53;;
51298;SDS011;37382;45.192;9.790;2023-04-03T03:30:21;8.73;;;7.15;;
51298;SDS011;37382;45.192;9.790;2023-04-03T03:32:49;10.25;;;7.60;;
51298;SDS011;37382;45.192;9.790;2023-04-03T03:35:16;9.70;;;8.35;;
51298;SDS011;37382;45.192;9.790;2023-04-03T03:37:44;10.48;;;8.00;;
51298;SDS011;37382;45.192;9.790;2023-04-03T03:40:11;15.27;;;8.45;;
51298;SDS011;37382;45.192;9.790;2023-04-03T03:42:40;12.77;;;9.15;;
51298;SDS011;37382;45.192;9.790;2023-04-03T03:45:07;16.05;;;8.38;;
51298;SDS011;37382;45.192;9.790;2023-04-03T03:47:35;13.20;;;7.75;;
51298;SDS011;37382;45.192;9.790;2023-04-03T03:50:03;14.25;;;7.10;;
51298;SDS011;37382;45.192;9.790;2023-04-03T03:52:31;8.43;;;7.05;;
51298;SDS011;37382;45.192;9.790;2023-04-03T03:54:59;10.30;;;6.45;;
51298;SDS011;37382;45.192;9.790;2023-04-03T03:57:27;10.20;;;6.70;;
51298;SDS011;37382;45.192;9.790;2023-04-03T03:59:56;8.00;;;6.82;;
51298;SDS011;37382;45.192;9.790;2023-04-03T04:02:24;8.82;;;7.07;;
51298;SDS011;37382;45.192;9.790;2023-04-03T04:04:53;15.18;;;7.20;;
51298;SDS011;37382;45.192;9.790;2023-04-03T04:07:21;12.43;;;7.75;;
51298;SDS011;37382;45.192;9.790;2023-04-03T04:09:49;14.02;;;6.47;;
51298;SDS011;37382;45.192;9.790;2023-04-03T04:12:16;18.48;;;6.88;;
51298;SDS011;37382;45.192;9.790;2023-04-03T04:14:45;17.98;;;7.28;;
51298;SDS011;37382;45.192;9.790;2023-04-03T04:17:15;17.77;;;7.05;;
51298;SDS011;37382;45.192;9.790;2023-04-03T04:19:42;19.10;;;8.60;;
51298;SDS011;37382;45.192;9.790;2023-04-03T04:22:10;10.40;;;7.47;;
51298;SDS011;37382;45.192;9.790;2023-04-03T04:24:38;15.80;;;8.68;;
51298;SDS011;37382;45.192;9.790;2023-04-03T04:27:07;10.88;;;8.38;;
51298;SDS011;37382;45.192;9.790;2023-04-03T04:29:35;13.73;;;8.57;;
51298;SDS011;37382;45.192;9.790;2023-04-03T04:32:06;14.48;;;8.88;;
51298;SDS011;37382;45.192;9.790;2023-04-03T04:34:34;14.18;;;9.20;;
51298;SDS011;37382;45.192;9.790;2023-04-03T04:37:02;12.60;;;9.30;;
51298;SDS011;37382;45.192;9.790;2023-04-03T04:39:30;12.07;;;9.02;;
51298;SDS011;37382;45.192;9.790;2023-04-03T04:41:58;19.02;;;9.43;;
51298;SDS011;37382;45.192;9.790;2023-04-03T04:46:59;14.93;;;9.05;;
51298;SDS011;37382;45.192;9.790;2023-04-03T04:49:27;12.90;;;9.32;;
51298;SDS011;37382;45.192;9.790;2023-04-03T04:51:55;11.43;;;9.25;;
51298;SDS011;37382;45.192;9.790;2023-04-03T04:54:27;15.93;;;10.13;;
51298;SDS011;37382;45.192;9.790;2023-04-03T04:56:56;14.68;;;9.10;;
51298;SDS011;37382;45.192;9.790;2023-04-03T04:59:24;13.45;;;8.10;;
51298;SDS011;37382;45.192;9.790;2023-04-03T05:01:55;14.45;;;9.40;;
51298;SDS011;37382;45.192;9.790;2023-04-03T05:04:22;17.80;;;8.25;;
51298;SDS011;37382;45.192;9.790;2023-04-03T05:06:55;12.50;;;8.32;;
51298;SDS011;37382;45.192;9.790;2023-04-03T05:09:26;20.42;;;9.27;;
51298;SDS011;37382;45.192;9.790;2023-04-03T05:11:54;11.15;;;8.73;;
51298;SDS011;37382;45.192;9.790;2023-04-03T05:14:24;15.52;;;8.65;;
51298;SDS011;37382;45.192;9.790;2023-04-03T05:16:53;14.45;;;8.93;;
51298;SDS011;37382;45.192;9.790;2023-04-03T05:19:24;13.07;;;8.10;;
51298;SDS011;37382;45.192;9.790;2023-04-03T05:21:52;13.48;;;8.80;;
51298;SDS011;37382;45.192;9.790;2023-04-03T05:24:20;14.07;;;9.80;;
51298;SDS011;37382;45.192;9.790;2023-04-03T05:26:47;16.45;;;9.48;;
51298;SDS011;37382;45.192;9.790;2023-04-03T05:29:16;20.00;;;9.23;;
51298;SDS011;37382;45.192;9.790;2023-04-03T05:31:45;11.90;;;8.75;;
51298;SDS011;37382;45.192;9.790;2023-04-03T05:34:13;16.73;;;9.38;;
51298;SDS011;37382;45.192;9.790;2023-04-03T05:36:41;15.98;;;9.30;;
51298;SDS011;37382;45.192;9.790;2023-04-03T05:39:10;18.50;;;8.55;;
51298;SDS011;37382;45.192;9.790;2023-04-03T05:41:41;13.02;;;9.30;;
51298;SDS011;37382;45.192;9.790;2023-04-03T05:44:09;12.77;;;8.05;;
51298;SDS011;37382;45.192;9.790;2023-04-03T05:46:36;14.40;;;7.78;;
51298;SDS011;37382;45.192;9.790;2023-04-03T05:49:07;20.40;;;8.23;;
51298;SDS011;37382;45.192;9.790;2023-04-03T05:51:37;12.55;;;8.13;;
51298;SDS011;37382;45.192;9.790;2023-04-03T05:54:21;16.90;;;8.18;;
51298;SDS011;37382;45.192;9.790;2023-04-03T05:56:55;14.98;;;7.97;;
51298;SDS011;37382;45.192;9.790;2023-04-03T05:59:24;15.80;;;8.32;;
51298;SDS011;37382;45.192;9.790;2023-04-03T06:01:55;20.40;;;9.60;;
51298;SDS011;37382;45.192;9.790;2023-04-03T06:04:23;19.77;;;9.65;;
51298;SDS011;37382;45.192;9.790;2023-04-03T06:06:53;20.67;;;9.90;;
51298;SDS011;37382;45.192;9.790;2023-04-03T06:09:23;28.20;;;10.30;;
51298;SDS011;37382;45.192;9.790;2023-04-03T06:11:53;21.60;;;8.55;;
51298;SDS011;37382;45.192;9.790;2023-04-03T06:14:22;12.18;;;8.65;;
51298;SDS011;37382;45.192;9.790;2023-04-03T06:16:50;14.32;;;8.50;;
51298;SDS011;37382;45.192;9.790;2023-04-03T06:19:17;16.27;;;8.70;;
51298;SDS011;37382;45.192;9.790;2023-04-03T06:21:49;19.67;;;9.18;;
51298;SDS011;37382;45.192;9.790;2023-04-03T06:24:17;22.55;;;9.77;;
51298;SDS011;37382;45.192;9.790;2023-04-03T06:26:47;26.88;;;9.95;;
51298;SDS011;37382;45.192;9.790;2023-04-03T06:29:15;19.13;;;9.38;;
51298;SDS011;37382;45.192;9.790;2023-04-03T06:31:43;15.05;;;8.98;;
51298;SDS011;37382;45.192;9.790;2023-04-03T06:34:10;21.17;;;9.40;;
51298;SDS011;37382;45.192;9.790;2023-04-03T06:36:39;17.30;;;9.23;;
51298;SDS011;37382;45.192;9.790;2023-04-03T06:39:08;17.88;;;9.38;;
51298;SDS011;37382;45.192;9.790;2023-04-03T06:41:40;17.05;;;9.32;;
51298;SDS011;37382;45.192;9.790;2023-04-03T06:44:08;18.10;;;8.68;;
51298;SDS011;37382;45.192;9.790;2023-04-03T06:46:39;15.85;;;9.50;;
51298;SDS011;37382;45.192;9.790;2023-04-03T06:49:06;29.23;;;10.18;;
51298;SDS011;37382;45.192;9.790;2023-04-03T06:51:35;18.13;;;9.75;;
51298;SDS011;37382;45.192;9.790;2023-04-03T06:54:04;22.42;;;10.20;;
51298;SDS011;37382;45.192;9.790;2023-04-03T06:56:33;17.90;;;9.98;;
51298;SDS011;37382;45.192;9.790;2023-04-03T06:59:00;24.25;;;9.18;;
51298;SDS011;37382;45.192;9.790;2023-04-03T07:01:29;21.27;;;10.95;;
51298;SDS011;37382;45.192;9.790;2023-04-03T07:03:58;27.33;;;10.63;;
51298;SDS011;37382;45.192;9.790;2023-04-03T07:06:25;18.55;;;9.82;;
51298;SDS011;37382;45.192;9.790;2023-04-03T07:08:56;17.73;;;10.73;;
51298;SDS011;37382;45.192;9.790;2023-04-03T07:11:23;21.73;;;11.20;;
51298;SDS011;37382;45.192;9.790;2023-04-03T07:13:51;16.90;;;10.98;;
51298;SDS011;37382;45.192;9.790;2023-04-03T07:16:19;20.80;;;10.55;;
51298;SDS011;37382;45.192;9.790;2023-04-03T07:18:47;16.63;;;10.48;;
51298;SDS011;37382;45.192;9.790;2023-04-03T07:21:15;34.13;;;10.98;;
51298;SDS011;37382;45.192;9.790;2023-04-03T07:23:43;30.42;;;9.77;;
51298;SDS011;37382;45.192;9.790;2023-04-03T07:26:10;17.13;;;9.45;;
51298;SDS011;37382;45.192;9.790;2023-04-03T07:28:37;13.98;;;8.50;;
51298;SDS011;37382;45.192;9.790;2023-04-03T07:31:08;16.77;;;8.43;;
51298;SDS011;37382;45.192;9.790;2023-04-03T07:33:40;15.57;;;8.60;;
51298;SDS011;37382;45.192;9.790;2023-04-03T07:36:09;14.45;;;9.65;;
51298;SDS011;37382;45.192;9.790;2023-04-03T07:38:38;22.70;;;9.48;;
51298;SDS011;37382;45.192;9.790;2023-04-03T07:41:06;13.52;;;8.30;;
51298;SDS011;37382;45.192;9.790;2023-04-03T07:43:34;16.77;;;8.32;;
51298;SDS011;37382;45.192;9.790;2023-04-03T07:46:02;16.58;;;8.32;;
51298;SDS011;37382;45.192;9.790;2023-04-03T07:48:32;15.35;;;8.32;;
51298;SDS011;37382;45.192;9.790;2023-04-03T07:51:02;18.60;;;8.70;;
51298;SDS011;37382;45.192;9.790;2023-04-03T07:53:31;20.40;;;8.02;;
51298;SDS011;37382;45.192;9.790;2023-04-03T07:55:59;9.13;;;7.75;;
51298;SDS011;37382;45.192;9.790;2023-04-03T07:58:29;12.02;;;7.63;;
51298;SDS011;37382;45.192;9.790;2023-04-03T08:00:57;11.82;;;7.75;;
51298;SDS011;37382;45.192;9.790;2023-04-03T08:03:25;12.77;;;7.28;;
51298;SDS011;37382;45.192;9.790;2023-04-03T08:05:53;10.68;;;7.70;;
51298;SDS011;37382;45.192;9.790;2023-04-03T08:08:22;10.88;;;7.80;;
51298;SDS011;37382;45.192;9.790;2023-04-03T08:10:51;13.32;;;8.52;;
51298;SDS011;37382;45.192;9.790;2023-04-03T08:13:20;16.85;;;5.90;;
51298;SDS011;37382;45.192;9.790;2023-04-03T08:15:49;9.95;;;5.50;;
51298;SDS011;37382;45.192;9.790;2023-04-03T08:18:17;7.28;;;5.68;;
51298;SDS011;37382;45.192;9.790;2023-04-03T08:20:48;11.65;;;5.82;;
51298;SDS011;37382;45.192;9.790;2023-04-03T08:23:15;9.88;;;6.00;;
51298;SDS011;37382;45.192;9.790;2023-04-03T08:25:46;7.30;;;5.68;;
51298;SDS011;37382;45.192;9.790;2023-04-03T08:28:13;7.90;;;5.68;;
51298;SDS011;37382;45.192;9.790;2023-04-03T08:30:42;8.55;;;5.00;;
51298;SDS011;37382;45.192;9.790;2023-04-03T08:33:10;7.60;;;5.25;;
51298;SDS011;37382;45.192;9.790;2023-04-03T08:35:38;12.52;;;5.38;;
51298;SDS011;37382;45.192;9.790;2023-04-03T08:38:10;7.38;;;5.53;;
51298;SDS011;37382;45.192;9.790;2023-04-03T08:40:38;8.93;;;5.18;;
51298;SDS011;37382;45.192;9.790;2023-04-03T08:43:53;7.78;;;4.72;;
51298;SDS011;37382;45.192;9.790;2023-04-03T08:45:58;21.13;;;8.23;;
51298;SDS011;37382;45.192;9.790;2023-04-03T08:48:35;11.75;;;4.63;;
51298;SDS011;37382;45.192;9.790;2023-04-03T08:51:17;8.02;;;5.47;;
51298;SDS011;37382;45.192;9.790;2023-04-03T08:54:06;8.82;;;3.60;;
51298;SDS011;37382;45.192;9.790;2023-04-03T08:56:47;6.80;;;3.80;;
51298;SDS011;37382;45.192;9.790;2023-04-03T08:59:16;6.65;;;3.10;;
51298;SDS011;37382;45.192;9.790;2023-04-03T09:01:51;10.13;;;3.08;;
51298;SDS011;37382;45.192;9.790;2023-04-03T09:04:20;9.15;;;3.50;;
51298;SDS011;37382;45.192;9.790;2023-04-03T09:06:50;4.40;;;3.00;;
51298;SDS011;37382;45.192;9.790;2023-04-03T09:20:24;3.65;;;2.67;;
51298;SDS011;37382;45.192;9.790;2023-04-03T09:22:59;4.25;;;2.65;;
51298;SDS011;37382;45.192;9.790;2023-04-03T09:25:27;7.70;;;3.08;;
51298;SDS011;37382;45.192;9.790;2023-04-03T09:28:00;4.30;;;2.50;;
51298;SDS011;37382;45.192;9.790;2023-04-03T09:30:29;3.13;;;2.63;;
51298;SDS011;37382;45.192;9.790;2023-04-03T09:32:57;4.55;;;3.65;;
51298;SDS011;37382;45.192;9.790;2023-04-03T09:35:29;5.07;;;2.83;;
51298;SDS011;37382;45.192;9.790;2023-04-03T09:38:15;4.55;;;2.90;;
51298;SDS011;37382;45.192;9.790;2023-04-03T09:41:04;7.80;;;3.20;;
51298;SDS011;37382;45.192;9.790;2023-04-03T09:43:40;4.57;;;2.55;;
51298;SDS011;37382;45.192;9.790;2023-04-03T09:48:58;4.35;;;2.75;;
51298;SDS011;37382;45.192;9.790;2023-04-03T09:51:36;3.78;;;2.70;;
51298;SDS011;37382;45.192;9.790;2023-04-03T09:54:23;2.50;;;2.25;;
51298;SDS011;37382;45.192;9.790;2023-04-03T09:56:59;4.53;;;1.80;;
51298;SDS011;37382;45.192;9.790;2023-04-03T09:59:33;3.50;;;1.95;;
51298;SDS011;37382;45.192;9.790;2023-04-03T10:02:03;10.50;;;2.20;;
51298;SDS011;37382;45.192;9.790;2023-04-03T10:04:48;3.92;;;2.22;;
51298;SDS011;37382;45.192;9.790;2023-04-03T10:07:36;3.22;;;2.15;;
51298;SDS011;37382;45.192;9.790;2023-04-03T10:10:20;5.50;;;2.38;;
51298;SDS011;37382;45.192;9.790;2023-04-03T10:13:14;4.68;;;2.28;;
51298;SDS011;37382;45.192;9.790;2023-04-03T10:15:50;4.03;;;1.95;;
51298;SDS011;37382;45.192;9.790;2023-04-03T10:21:11;5.13;;;2.33;;
51298;SDS011;37382;45.192;9.790;2023-04-03T10:26:39;5.15;;;1.90;;
51298;SDS011;37382;45.192;9.790;2023-04-03T10:37:14;6.22;;;1.90;;
51298;SDS011;37382;45.192;9.790;2023-04-03T10:42:42;2.65;;;2.05;;
51298;SDS011;37382;45.192;9.790;2023-04-03T10:45:24;4.95;;;2.13;;
51298;SDS011;37382;45.192;9.790;2023-04-03T10:50:53;4.50;;;2.15;;
51298;SDS011;37382;45.192;9.790;2023-04-03T10:56:05;2.47;;;1.42;;
51298;SDS011;37382;45.192;9.790;2023-04-03T10:58:48;3.90;;;2.17;;
51298;SDS011;37382;45.192;9.790;2023-04-03T11:01:23;1.88;;;1.58;;
51298;SDS011;37382;45.192;9.790;2023-04-03T11:04:00;2.03;;;1.70;;
51298;SDS011;37382;45.192;9.790;2023-04-03T11:06:43;2.55;;;2.00;;
51298;SDS011;37382;45.192;9.790;2023-04-03T11:09:23;2.53;;;1.77;;
51298;SDS011;37382;45.192;9.790;2023-04-03T11:12:03;2.88;;;2.08;;
51298;SDS011;37382;45.192;9.790;2023-04-03T11:14:37;3.90;;;1.80;;
51298;SDS011;37382;45.192;9.790;2023-04-03T11:20:08;2.25;;;1.70;;
51298;SDS011;37382;45.192;9.790;2023-04-03T11:22:51;4.13;;;1.70;;
51298;SDS011;37382;45.192;9.790;2023-04-03T11:25:25;2.80;;;1.65;;
51298;SDS011;37382;45.192;9.790;2023-04-03T11:27:57;2.20;;;1.70;;
51298;SDS011;37382;45.192;9.790;2023-04-03T11:30:28;2.97;;;1.70;;
51298;SDS011;37382;45.192;9.790;2023-04-03T11:35:51;2.15;;;1.40;;
51298;SDS011;37382;45.192;9.790;2023-04-03T11:38:24;2.15;;;1.40;;
51298;SDS011;37382;45.192;9.790;2023-04-03T11:40:57;4.22;;;1.75;;
51298;SDS011;37382;45.192;9.790;2023-04-03T11:43:26;2.92;;;1.90;;
51298;SDS011;37382;45.192;9.790;2023-04-03T11:45:59;4.40;;;1.85;;
51298;SDS011;37382;45.192;9.790;2023-04-03T11:51:01;2.80;;;1.40;;
51298;SDS011;37382;45.192;9.790;2023-04-03T11:53:49;4.05;;;1.60;;
51298;SDS011;37382;45.192;9.790;2023-04-03T11:59:14;3.47;;;1.30;;
51298;SDS011;37382;45.192;9.790;2023-04-03T12:01:44;3.63;;;1.48;;
51298;SDS011;37382;45.192;9.790;2023-04-03T12:04:14;1.63;;;1.35;;
51298;SDS011;37382;45.192;9.790;2023-04-03T12:11:51;2.30;;;1.17;;
51298;SDS011;37382;45.192;9.790;2023-04-03T12:14:21;3.63;;;1.25;;
51298;SDS011;37382;45.192;9.790;2023-04-03T12:16:53;1.73;;;1.30;;
51298;SDS011;37382;45.192;9.790;2023-04-03T12:19:35;5.80;;;1.40;;
51298;SDS011;37382;45.192;9.790;2023-04-03T12:22:10;3.33;;;1.50;;
51298;SDS011;37382;45.192;9.790;2023-04-03T12:24:49;3.00;;;1.42;;
51298;SDS011;37382;45.192;9.790;2023-04-03T12:27:28;8.30;;;1.42;;
51298;SDS011;37382;45.192;9.790;2023-04-03T12:30:17;3.05;;;1.40;;
51298;SDS011;37382;45.192;9.790;2023-04-03T12:32:58;2.20;;;1.50;;
51298;SDS011;37382;45.192;9.790;2023-04-03T12:35:44;4.03;;;1.27;;
51298;SDS011;37382;45.192;9.790;2023-04-03T12:46:45;3.10;;;1.58;;
51298;SDS011;37382;45.192;9.790;2023-04-03T12:52:04;2.88;;;1.35;;
51298;SDS011;37382;45.192;9.790;2023-04-03T12:54:43;2.33;;;1.20;;
51298;SDS011;37382;45.192;9.790;2023-04-03T12:59:42;1.92;;;1.13;;
51298;SDS011;37382;45.192;9.790;2023-04-03T13:02:34;4.03;;;1.17;;
51298;SDS011;37382;45.192;9.790;2023-04-03T13:05:09;2.08;;;0.93;;
51298;SDS011;37382;45.192;9.790;2023-04-03T13:07:42;2.97;;;1.10;;
51298;SDS011;37382;45.192;9.790;2023-04-03T13:10:15;3.53;;;1.10;;
51298;SDS011;37382;45.192;9.790;2023-04-03T13:15:29;2.45;;;1.08;;
51298;SDS011;37382;45.192;9.790;2023-04-03T13:18:27;2.05;;;1.30;;
51298;SDS011;37382;45.192;9.790;2023-04-03T13:21:02;0.75;;;0.75;;
51298;SDS011;37382;45.192;9.790;2023-04-03T13:23:33;3.25;;;1.23;;
51298;SDS011;37382;45.192;9.790;2023-04-03T13:26:04;2.28;;;0.90;;
51298;SDS011;37382;45.192;9.790;2023-04-03T13:28:33;4.07;;;1.30;;
51298;SDS011;37382;45.192;9.790;2023-04-03T13:31:07;4.78;;;1.92;;
51298;SDS011;37382;45.192;9.790;2023-04-03T13:36:26;5.38;;;1.77;;
51298;SDS011;37382;45.192;9.790;2023-04-03T13:39:02;4.57;;;1.52;;
51298;SDS011;37382;45.192;9.790;2023-04-03T13:41:49;4.70;;;1.75;;
51298;SDS011;37382;45.192;9.790;2023-04-03T13:46:49;8.93;;;1.77;;
51298;SDS011;37382;45.192;9.790;2023-04-03T13:51:56;6.70;;;1.83;;
51298;SDS011;37382;45.192;9.790;2023-04-03T13:54:37;3.95;;;1.35;;
51298;SDS011;37382;45.192;9.790;2023-04-03T13:57:12;10.30;;;1.88;;
51298;SDS011;37382;45.192;9.790;2023-04-03T13:59:45;7.38;;;1.63;;
51298;SDS011;37382;45.192;9.790;2023-04-03T14:02:15;5.70;;;1.40;;
51298;SDS011;37382;45.192;9.790;2023-04-03T14:04:52;2.30;;;1.40;;
51298;SDS011;37382;45.192;9.790;2023-04-03T14:07:24;7.32;;;1.75;;
51298;SDS011;37382;45.192;9.790;2023-04-03T14:09:53;5.97;;;1.70;;
51298;SDS011;37382;45.192;9.790;2023-04-03T14:12:35;7.07;;;1.50;;
51298;SDS011;37382;45.192;9.790;2023-04-03T14:15:16;9.77;;;1.40;;
51298;SDS011;37382;45.192;9.790;2023-04-03T14:17:47;3.97;;;1.73;;
51298;SDS011;37382;45.192;9.790;2023-04-03T14:20:16;4.18;;;1.40;;
51298;SDS011;37382;45.192;9.790;2023-04-03T14:22:45;2.75;;;1.40;;
51298;SDS011;37382;45.192;9.790;2023-04-03T14:25:13;3.25;;;1.30;;
51298;SDS011;37382;45.192;9.790;2023-04-03T14:27:42;9.40;;;1.70;;
51298;SDS011;37382;45.192;9.790;2023-04-03T14:30:20;12.18;;;1.40;;
51298;SDS011;37382;45.192;9.790;2023-04-03T14:32:54;3.13;;;1.17;;
51298;SDS011;37382;45.192;9.790;2023-04-03T14:35:22;7.03;;;1.40;;
51298;SDS011;37382;45.192;9.790;2023-04-03T14:37:51;6.35;;;1.73;;
51298;SDS011;37382;45.192;9.790;2023-04-03T14:40:24;2.92;;;1.00;;
51298;SDS011;37382;45.192;9.790;2023-04-03T14:42:54;7.40;;;1.20;;
51298;SDS011;37382;45.192;9.790;2023-04-03T14:45:22;8.32;;;1.02;;
51298;SDS011;37382;45.192;9.790;2023-04-03T14:47:51;4.30;;;1.13;;
51298;SDS011;37382;45.192;9.790;2023-04-03T14:50:23;6.82;;;1.15;;
51298;SDS011;37382;45.192;9.790;2023-04-03T14:52:53;2.45;;;1.10;;
51298;SDS011;37382;45.192;9.790;2023-04-03T14:55:24;4.97;;;1.10;;
51298;SDS011;37382;45.192;9.790;2023-04-03T14:57:52;5.97;;;1.10;;
51298;SDS011;37382;45.192;9.790;2023-04-03T15:00:21;7.15;;;1.45;;
51298;SDS011;37382;45.192;9.790;2023-04-03T15:02:50;3.42;;;1.20;;
51298;SDS011;37382;45.192;9.790;2023-04-03T15:05:18;13.48;;;1.38;;
51298;SDS011;37382;45.192;9.790;2023-04-03T15:07:50;4.32;;;1.10;;
51298;SDS011;37382;45.192;9.790;2023-04-03T15:10:28;3.65;;;1.25;;
51298;SDS011;37382;45.192;9.790;2023-04-03T15:12:57;5.68;;;1.20;;
51298;SDS011;37382;45.192;9.790;2023-04-03T15:15:27;8.02;;;1.15;;
51298;SDS011;37382;45.192;9.790;2023-04-03T15:17:56;4.63;;;1.40;;
51298;SDS011;37382;45.192;9.790;2023-04-03T15:20:25;10.52;;;1.42;;
51298;SDS011;37382;45.192;9.790;2023-04-03T15:22:54;3.38;;;1.20;;
51298;SDS011;37382;45.192;9.790;2023-04-03T15:25:23;9.70;;;2.10;;
51298;SDS011;37382;45.192;9.790;2023-04-03T15:27:55;6.18;;;2.20;;
51298;SDS011;37382;45.192;9.790;2023-04-03T15:30:24;8.20;;;2.00;;
51298;SDS011;37382;45.192;9.790;2023-04-03T15:32:52;8.15;;;1.42;;
51298;SDS011;37382;45.192;9.790;2023-04-03T15:35:20;5.00;;;1.70;;
51298;SDS011;37382;45.192;9.790;2023-04-03T15:37:48;6.07;;;1.50;;
51298;SDS011;37382;45.192;9.790;2023-04-03T15:40:16;9.15;;;1.77;;
51298;SDS011;37382;45.192;9.790;2023-04-03T15:42:44;6.07;;;1.60;;
51298;SDS011;37382;45.192;9.790;2023-04-03T15:45:11;3.83;;;1.15;;
51298;SDS011;37382;45.192;9.790;2023-04-03T15:47:39;4.65;;;1.40;;
51298;SDS011;37382;45.192;9.790;2023-04-03T15:50:07;5.90;;;1.45;;
51298;SDS011;37382;45.192;9.790;2023-04-03T15:52:35;5.70;;;1.92;;
51298;SDS011;37382;45.192;9.790;2023-04-03T15:55:02;7.88;;;1.92;;
51298;SDS011;37382;45.192;9.790;2023-04-03T15:57:31;7.15;;;1.60;;
51298;SDS011;37382;45.192;9.790;2023-04-03T16:00:04;10.20;;;2.30;;
51298;SDS011;37382;45.192;9.790;2023-04-03T16:02:33;9.93;;;1.60;;
51298;SDS011;37382;45.192;9.790;2023-04-03T16:05:01;13.38;;;1.70;;
51298;SDS011;37382;45.192;9.790;2023-04-03T16:07:29;9.27;;;2.00;;
51298;SDS011;37382;45.192;9.790;2023-04-03T16:09:57;5.93;;;1.30;;
51298;SDS011;37382;45.192;9.790;2023-04-03T16:12:24;9.68;;;1.60;;
51298;SDS011;37382;45.192;9.790;2023-04-03T16:14:52;6.10;;;1.58;;
51298;SDS011;37382;45.192;9.790;2023-04-03T16:17:19;8.73;;;1.60;;
51298;SDS011;37382;45.192;9.790;2023-04-03T16:19:47;5.95;;;1.50;;
51298;SDS011;37382;45.192;9.790;2023-04-03T16:22:14;5.00;;;1.40;;
51298;SDS011;37382;45.192;9.790;2023-04-03T16:24:42;6.80;;;1.83;;
51298;SDS011;37382;45.192;9.790;2023-04-03T16:27:09;5.88;;;1.85;;
51298;SDS011;37382;45.192;9.790;2023-04-03T16:29:37;2.58;;;1.63;;